Time;durP1;ratioP1;P1;durP2;ratioP2;P2;SDS_P1;SDS_P2;PMS_P1;PMS_P2;Temp;Humidity;BMP_temperature;BMP_pressure;BME280_temperature;BME280_humidity;BME280_pressure;Samples;Min_cycle;Max_cycle;Signal;HPM_P1;HPM_P2
2021/01/03 00:01:29;;;;;;;9.30;5.00;;;1.40;99.90;;;;;;4202788;28;20469;-54
2021/01/03 00:03:30;;;;;;;10.67;5.53;;;1.40;99.90;;;;;;4201539;28;20493;-54
2021/01/03 00:05:34;;;;;;;10.93;5.33;;;1.40;99.90;;;;;;4201156;28;20473;-54
2021/01/03 00:07:35;;;;;;;10.17;5.10;;;1.40;99.90;;;;;;4201878;28;21427;-54
2021/01/03 00:09:36;;;;;;;10.33;4.80;;;1.40;99.90;;;;;;4201288;28;20469;-55
2021/01/03 00:11:38;;;;;;;8.80;4.63;;;1.40;99.90;;;;;;4201697;28;20468;-59
2021/01/03 00:13:39;;;;;;;11.43;5.00;;;1.40;99.90;;;;;;4201589;28;20543;-55
2021/01/03 00:15:40;;;;;;;9.50;5.17;;;1.40;99.90;;;;;;4201441;28;20506;-55
2021/01/03 00:17:42;;;;;;;9.47;5.07;;;1.40;99.90;;;;;;4201429;28;20539;-55
2021/01/03 00:19:43;;;;;;;10.17;5.23;;;1.40;99.90;;;;;;4201207;28;20866;-54
2021/01/03 00:21:45;;;;;;;8.07;4.13;;;1.40;99.90;;;;;;4202115;28;20480;-54
2021/01/03 00:23:47;;;;;;;8.67;4.30;;;1.40;99.90;;;;;;4201609;28;20480;-55
2021/01/03 00:25:48;;;;;;;11.33;4.67;;;1.40;99.90;;;;;;4201525;28;20471;-55
2021/01/03 00:27:50;;;;;;;11.17;4.53;;;1.40;99.90;;;;;;4200890;28;20476;-55
2021/01/03 00:29:52;;;;;;;8.23;4.20;;;1.50;99.90;;;;;;4202702;28;20525;-55
2021/01/03 00:31:53;;;;;;;12.43;4.73;;;1.50;99.90;;;;;;4201185;28;20790;-59
2021/01/03 00:33:54;;;;;;;8.93;4.30;;;1.50;99.90;;;;;;4200824;28;20478;-55
2021/01/03 00:35:56;;;;;;;9.77;4.70;;;1.50;99.90;;;;;;4200814;28;20594;-56
2021/01/03 00:38:00;;;;;;;10.37;4.83;;;1.50;99.90;;;;;;4201700;28;21314;-55
2021/01/03 00:40:01;;;;;;;8.97;4.00;;;1.50;99.90;;;;;;4200212;28;20476;-57
2021/01/03 00:42:03;;;;;;;9.50;4.47;;;1.50;99.90;;;;;;4201477;28;20481;-55
2021/01/03 00:44:05;;;;;;;9.13;4.20;;;1.50;99.90;;;;;;4200926;28;20488;-55
2021/01/03 00:46:06;;;;;;;10.47;4.73;;;1.50;99.90;;;;;;4201406;28;20463;-57
2021/01/03 00:48:09;;;;;;;10.20;4.80;;;1.50;99.90;;;;;;4201123;28;20482;-56
2021/01/03 00:50:12;;;;;;;8.63;4.60;;;1.40;99.90;;;;;;4200569;28;20517;-55
2021/01/03 00:52:13;;;;;;;9.43;4.73;;;1.40;99.90;;;;;;4202044;28;20524;-54
2021/01/03 00:54:15;;;;;;;8.20;3.90;;;1.40;99.90;;;;;;4200086;28;20567;-54
2021/01/03 00:56:17;;;;;;;7.13;4.20;;;1.50;99.90;;;;;;4200345;28;20953;-57
2021/01/03 00:58:18;;;;;;;7.13;4.37;;;1.50;99.90;;;;;;4200361;28;20468;-54
2021/01/03 01:00:26;;;;;;;7.50;4.20;;;1.50;99.90;;;;;;4200425;28;20476;-55
2021/01/03 01:02:27;;;;;;;9.93;4.67;;;1.50;99.90;;;;;;4200321;28;20477;-56
2021/01/03 01:04:28;;;;;;;8.63;4.30;;;1.50;99.90;;;;;;4201000;28;20489;-55
2021/01/03 01:06:30;;;;;;;8.17;4.43;;;1.50;99.90;;;;;;4199253;28;20481;-54
2021/01/03 01:08:31;;;;;;;9.03;4.60;;;1.50;99.90;;;;;;4200836;28;20516;-54
2021/01/03 01:10:33;;;;;;;9.50;4.33;;;1.50;99.90;;;;;;4199996;28;20466;-54
2021/01/03 01:12:35;;;;;;;10.37;4.33;;;1.50;99.90;;;;;;4200254;28;20477;-54
2021/01/03 01:14:37;;;;;;;6.67;3.67;;;1.50;99.90;;;;;;4200552;28;20469;-55
2021/01/03 01:16:38;;;;;;;8.50;4.03;;;1.50;99.90;;;;;;4200869;28;20472;-54
2021/01/03 01:18:40;;;;;;;9.13;4.33;;;1.50;99.90;;;;;;4200164;28;20477;-54
2021/01/03 01:20:41;;;;;;;7.33;4.27;;;1.50;99.90;;;;;;4200553;28;21117;-55
2021/01/03 01:22:42;;;;;;;7.53;3.80;;;1.50;99.90;;;;;;4202474;28;20481;-55
2021/01/03 01:24:44;;;;;;;7.60;4.20;;;1.50;99.90;;;;;;4200136;28;20523;-55
2021/01/03 01:26:46;;;;;;;9.30;4.30;;;1.50;99.90;;;;;;4201444;28;20477;-54
2021/01/03 01:28:48;;;;;;;7.83;4.17;;;1.50;99.90;;;;;;4200119;28;20551;-55
2021/01/03 01:30:50;;;;;;;8.17;4.40;;;1.50;99.90;;;;;;4200240;28;20489;-54
2021/01/03 01:32:51;;;;;;;8.17;3.80;;;1.50;99.90;;;;;;4199765;28;20643;-54
2021/01/03 01:34:53;;;;;;;6.47;3.60;;;1.50;99.90;;;;;;4200684;28;20465;-55
2021/01/03 01:36:54;;;;;;;6.93;3.73;;;1.50;99.90;;;;;;4200586;28;20464;-55
2021/01/03 01:38:55;;;;;;;6.30;3.87;;;1.50;99.90;;;;;;4199630;28;20485;-55
2021/01/03 01:40:57;;;;;;;8.30;3.60;;;1.50;99.90;;;;;;4200209;28;20477;-52
2021/01/03 01:42:59;;;;;;;8.00;4.00;;;1.50;99.90;;;;;;4199742;28;21201;-53
2021/01/03 01:45:01;;;;;;;7.87;3.70;;;1.50;99.90;;;;;;4200064;28;20496;-53
2021/01/03 01:47:11;;;;;;;7.23;3.73;;;1.50;99.90;;;;;;4200103;28;20506;-53
2021/01/03 01:49:14;;;;;;;8.37;4.07;;;1.50;99.90;;;;;;4199775;28;20474;-54
2021/01/03 01:51:22;;;;;;;8.20;4.10;;;1.50;99.90;;;;;;4200301;28;20469;-53
2021/01/03 01:53:28;;;;;;;7.37;3.73;;;1.60;99.90;;;;;;4200057;28;20506;-54
2021/01/03 01:55:35;;;;;;;7.17;4.10;;;1.60;99.90;;;;;;4199793;28;20472;-54
2021/01/03 01:57:43;;;;;;;8.40;3.80;;;1.60;99.90;;;;;;4201000;28;20482;-54
2021/01/03 01:59:52;;;;;;;7.50;3.57;;;1.60;99.90;;;;;;4201595;28;20478;-57
2021/01/03 02:02:02;;;;;;;7.27;3.93;;;1.60;99.90;;;;;;4201213;28;20488;-55
2021/01/03 02:04:11;;;;;;;6.90;3.90;;;1.60;99.90;;;;;;4199489;28;20971;-54
2021/01/03 02:06:19;;;;;;;6.37;3.63;;;1.60;99.90;;;;;;4199988;28;20469;-54
2021/01/03 02:08:29;;;;;;;6.33;3.70;;;1.60;99.90;;;;;;4199914;28;20461;-54
2021/01/03 02:10:34;;;;;;;6.87;4.07;;;1.50;99.90;;;;;;4200106;28;20469;-54
2021/01/03 02:12:38;;;;;;;6.00;3.80;;;1.60;99.90;;;;;;4201843;28;20943;-54
2021/01/03 02:14:42;;;;;;;7.43;3.77;;;1.60;99.90;;;;;;4202077;28;20477;-54
2021/01/03 02:16:44;;;;;;;6.03;3.57;;;1.60;99.90;;;;;;4204573;28;20479;-54
2021/01/03 02:18:47;;;;;;;6.97;3.80;;;1.60;99.90;;;;;;4203570;28;20481;-54
2021/01/03 02:21:12;;;;;;;6.43;3.73;;;1.60;99.90;;;;;;4203105;28;20500;-54
2021/01/03 02:23:19;;;;;;;6.63;3.67;;;1.60;99.90;;;;;;4202940;28;20487;-54
2021/01/03 02:25:22;;;;;;;6.90;3.90;;;1.60;99.90;;;;;;4203069;28;20530;-54
2021/01/03 02:27:37;;;;;;;7.80;3.90;;;1.50;99.90;;;;;;4204105;28;20962;-54
2021/01/03 02:29:39;;;;;;;6.50;3.73;;;1.50;99.90;;;;;;4203869;28;20472;-54
2021/01/03 02:31:43;;;;;;;7.10;3.93;;;1.60;99.90;;;;;;4203322;28;20782;-54
2021/01/03 02:33:47;;;;;;;6.80;3.60;;;1.60;99.90;;;;;;4203819;28;20473;-59
2021/01/03 02:35:50;;;;;;;7.70;3.80;;;1.60;99.90;;;;;;4203251;28;21495;-57
2021/01/03 02:37:53;;;;;;;6.40;3.80;;;1.50;99.90;;;;;;4204339;28;20545;-58
2021/01/03 02:39:58;;;;;;;6.80;4.00;;;1.50;99.90;;;;;;4202595;28;20474;-54
2021/01/03 02:42:12;;;;;;;6.73;3.60;;;1.50;99.90;;;;;;4203221;28;20472;-54
2021/01/03 02:44:13;;;;;;;6.90;3.77;;;1.50;99.90;;;;;;4203010;28;20578;-54
2021/01/03 02:46:14;;;;;;;7.10;3.87;;;1.50;99.90;;;;;;4202932;28;20469;-54
2021/01/03 02:48:20;;;;;;;7.50;3.60;;;1.50;99.90;;;;;;4202433;28;20467;-54
2021/01/03 02:50:24;;;;;;;6.87;3.70;;;1.50;99.90;;;;;;4203258;28;20473;-54
2021/01/03 02:52:31;;;;;;;6.80;4.30;;;1.50;99.90;;;;;;4202271;28;20477;-54
2021/01/03 02:54:32;;;;;;;6.33;4.10;;;1.50;99.90;;;;;;4202621;28;20475;-55
2021/01/03 02:56:33;;;;;;;6.53;4.27;;;1.50;99.90;;;;;;4203287;28;20547;-54
2021/01/03 02:58:35;;;;;;;7.40;4.23;;;1.50;99.90;;;;;;4203211;28;20469;-54
2021/01/03 03:00:38;;;;;;;5.97;3.70;;;1.50;99.90;;;;;;4202831;28;20472;-55
2021/01/03 03:02:39;;;;;;;6.73;3.50;;;1.50;99.90;;;;;;4202536;28;20506;-54
2021/01/03 03:04:41;;;;;;;6.57;3.80;;;1.50;99.90;;;;;;4202906;28;20495;-54
2021/01/03 03:06:45;;;;;;;6.63;3.80;;;1.50;99.90;;;;;;4203323;28;20468;-55
2021/01/03 03:08:46;;;;;;;6.63;4.00;;;1.50;99.90;;;;;;4203132;28;21262;-54
2021/01/03 03:10:47;;;;;;;6.63;3.53;;;1.50;99.90;;;;;;4202619;28;20470;-54
2021/01/03 03:12:50;;;;;;;6.20;3.93;;;1.50;99.90;;;;;;4203559;28;20480;-54
2021/01/03 03:14:52;;;;;;;8.53;4.17;;;1.50;99.90;;;;;;4202569;28;20464;-54
2021/01/03 03:16:57;;;;;;;5.80;3.30;;;1.50;99.90;;;;;;4202368;28;20481;-54
2021/01/03 03:18:58;;;;;;;5.50;3.33;;;1.50;99.90;;;;;;4201483;28;20968;-54
2021/01/03 03:20:59;;;;;;;5.93;3.60;;;1.50;99.90;;;;;;4202525;28;20497;-54
2021/01/03 03:23:01;;;;;;;7.53;3.90;;;1.50;99.90;;;;;;4202328;28;20961;-54
2021/01/03 03:25:03;;;;;;;5.77;3.37;;;1.50;99.90;;;;;;4203410;28;20496;-54
2021/01/03 03:27:05;;;;;;;6.40;3.23;;;1.50;99.90;;;;;;4202301;28;20483;-54
2021/01/03 03:29:06;;;;;;;5.53;3.20;;;1.50;99.90;;;;;;4202853;28;20475;-54
2021/01/03 03:31:08;;;;;;;5.30;3.67;;;1.50;99.90;;;;;;4202224;28;20467;-54
2021/01/03 03:33:10;;;;;;;5.33;3.17;;;1.50;99.90;;;;;;4202094;28;20946;-54
2021/01/03 03:35:12;;;;;;;5.60;3.30;;;1.50;99.90;;;;;;4202596;28;20464;-54
2021/01/03 03:37:14;;;;;;;6.07;3.70;;;1.50;99.90;;;;;;4202045;28;20487;-54
2021/01/03 03:39:15;;;;;;;6.27;3.50;;;1.50;99.90;;;;;;4202207;28;20992;-54
2021/01/03 03:41:18;;;;;;;7.30;3.37;;;1.50;99.90;;;;;;4202490;28;20497;-54
2021/01/03 03:43:20;;;;;;;6.17;3.50;;;1.40;99.90;;;;;;4202462;28;20471;-54
2021/01/03 03:45:22;;;;;;;4.37;3.00;;;1.50;99.90;;;;;;4201761;28;20518;-54
2021/01/03 03:47:25;;;;;;;5.13;3.20;;;1.40;99.90;;;;;;4201364;28;20498;-54
2021/01/03 03:49:27;;;;;;;5.17;3.30;;;1.40;99.90;;;;;;4202477;28;20481;-54
2021/01/03 03:51:28;;;;;;;6.20;3.53;;;1.40;99.90;;;;;;4201511;28;20493;-54
2021/01/03 03:53:29;;;;;;;5.17;3.53;;;1.40;99.90;;;;;;4201892;28;20463;-54
2021/01/03 03:55:31;;;;;;;5.90;3.37;;;1.50;99.90;;;;;;4201951;28;20492;-52
2021/01/03 03:57:32;;;;;;;5.50;3.53;;;1.40;99.90;;;;;;4201674;28;20465;-54
2021/01/03 03:59:33;;;;;;;5.97;3.70;;;1.40;99.90;;;;;;4202165;28;20481;-54
2021/01/03 04:01:38;;;;;;;6.13;3.60;;;1.40;99.90;;;;;;4201706;28;20804;-54
2021/01/03 04:03:40;;;;;;;5.40;3.40;;;1.40;99.90;;;;;;4202391;28;20470;-54
2021/01/03 04:05:45;;;;;;;5.53;3.00;;;1.40;99.90;;;;;;4201291;28;20484;-54
2021/01/03 04:07:46;;;;;;;5.53;3.10;;;1.50;99.90;;;;;;4201053;28;20468;-54
2021/01/03 04:09:47;;;;;;;5.47;3.03;;;1.50;99.90;;;;;;4201153;28;20468;-54
2021/01/03 04:11:51;;;;;;;6.63;3.37;;;1.50;99.90;;;;;;4202108;28;20479;-54
2021/01/03 04:13:52;;;;;;;7.80;3.67;;;1.50;99.90;;;;;;4201642;28;20476;-54
2021/01/03 04:15:53;;;;;;;4.37;3.10;;;1.50;99.90;;;;;;4200743;28;20477;-54
2021/01/03 04:17:54;;;;;;;6.23;3.27;;;1.50;99.90;;;;;;4202193;28;20472;-54
2021/01/03 04:19:57;;;;;;;6.60;3.00;;;1.50;99.90;;;;;;4200486;28;20472;-54
2021/01/03 04:22:01;;;;;;;6.00;3.30;;;1.50;99.90;;;;;;4201506;28;20465;-55
2021/01/03 04:24:02;;;;;;;5.37;3.60;;;1.50;99.90;;;;;;4202044;28;20483;-53
2021/01/03 04:26:03;;;;;;;5.13;3.03;;;1.50;99.90;;;;;;4202318;28;20476;-53
2021/01/03 04:28:05;;;;;;;4.70;2.73;;;1.50;99.90;;;;;;4201095;28;20486;-54
2021/01/03 04:30:08;;;;;;;6.13;3.20;;;1.50;99.90;;;;;;4202305;28;20477;-54
2021/01/03 04:32:11;;;;;;;6.17;2.97;;;1.50;99.90;;;;;;4200723;28;20473;-55
2021/01/03 04:34:12;;;;;;;5.80;3.17;;;1.50;99.90;;;;;;4201775;28;20468;-54
2021/01/03 04:36:15;;;;;;;5.20;3.00;;;1.50;99.90;;;;;;4201148;28;22510;-54
2021/01/03 04:38:17;;;;;;;4.80;3.00;;;1.50;99.90;;;;;;4201539;28;20528;-54
2021/01/03 04:40:22;;;;;;;5.87;3.47;;;1.50;99.90;;;;;;4200887;28;20463;-54
2021/01/03 04:42:28;;;;;;;6.27;3.23;;;1.60;99.90;;;;;;4201503;28;20464;-56
2021/01/03 04:44:34;;;;;;;6.67;3.33;;;1.60;99.90;;;;;;4201424;28;20492;-54
2021/01/03 04:46:39;;;;;;;6.33;3.17;;;1.60;99.90;;;;;;4200745;28;20476;-54
2021/01/03 04:48:41;;;;;;;6.57;3.60;;;1.60;99.90;;;;;;4201113;28;20475;-53
2021/01/03 04:51:01;;;;;;;6.00;3.33;;;1.60;99.90;;;;;;4200640;28;20555;-54
2021/01/03 04:53:21;;;;;;;5.07;3.00;;;1.60;99.90;;;;;;4201195;28;20466;-54
2021/01/03 04:55:24;;;;;;;5.70;3.33;;;1.60;99.90;;;;;;4201077;28;20459;-53
2021/01/03 04:57:41;;;;;;;7.80;3.80;;;1.60;99.90;;;;;;4200654;28;20526;-53
2021/01/03 04:59:48;;;;;;;6.30;3.53;;;1.60;99.90;;;;;;4201935;28;20501;-54
2021/01/03 05:02:35;;;;;;;7.43;3.50;;;1.60;99.90;;;;;;4201518;28;21067;-59
2021/01/03 05:04:49;;;;;;;7.40;3.77;;;1.60;99.90;;;;;;4201067;28;20496;-54
2021/01/03 05:06:53;;;;;;;6.70;3.90;;;1.60;99.90;;;;;;4201679;28;20472;-54
2021/01/03 05:08:59;;;;;;;7.90;4.10;;;1.60;99.90;;;;;;4201289;28;20820;-54
2021/01/03 05:11:05;;;;;;;8.50;4.60;;;1.60;99.90;;;;;;4201256;28;20502;-54
2021/01/03 05:13:21;;;;;;;7.63;4.17;;;1.60;99.90;;;;;;4200456;28;20480;-54
2021/01/03 05:15:26;;;;;;;7.53;3.97;;;1.60;99.90;;;;;;4200914;28;20488;-54
2021/01/03 05:17:28;;;;;;;7.70;3.67;;;1.60;99.90;;;;;;4201925;28;20466;-54
2021/01/03 05:19:29;;;;;;;8.57;3.80;;;1.60;99.90;;;;;;4200738;28;20465;-53
2021/01/03 05:21:45;;;;;;;7.87;4.30;;;1.60;99.90;;;;;;4199593;28;20481;-54
2021/01/03 05:24:01;;;;;;;7.87;4.77;;;1.60;99.90;;;;;;4200554;28;20470;-53
2021/01/03 05:26:04;;;;;;;8.23;4.77;;;1.60;99.90;;;;;;4201634;28;20839;-53
2021/01/03 05:28:10;;;;;;;8.37;4.33;;;1.60;99.90;;;;;;4201971;28;20476;-54
2021/01/03 05:30:18;;;;;;;9.10;5.00;;;1.60;99.90;;;;;;4200604;28;20480;-54
2021/01/03 05:32:30;;;;;;;8.83;4.13;;;1.60;99.90;;;;;;4202112;28;20480;-54
2021/01/03 05:34:34;;;;;;;8.07;4.10;;;1.60;99.90;;;;;;4201791;28;20472;-54
2021/01/03 05:36:42;;;;;;;10.37;5.37;;;1.60;99.90;;;;;;4199841;28;20481;-54
2021/01/03 05:38:43;;;;;;;11.27;5.60;;;1.60;99.90;;;;;;4200357;28;20488;-53
2021/01/03 05:40:45;;;;;;;9.63;5.10;;;1.60;99.90;;;;;;4200938;28;20472;-53
2021/01/03 05:42:47;;;;;;;9.93;5.40;;;1.60;99.90;;;;;;4199901;28;20470;-53
2021/01/03 05:44:57;;;;;;;9.37;4.73;;;1.60;99.90;;;;;;4200797;28;20996;-54
2021/01/03 05:47:17;;;;;;;9.03;4.23;;;1.60;99.90;;;;;;4200527;28;20469;-52
2021/01/03 05:49:23;;;;;;;10.10;4.93;;;1.70;99.90;;;;;;4203268;28;20525;-53
2021/01/03 05:51:38;;;;;;;9.83;5.10;;;1.70;99.90;;;;;;4204694;28;20963;-53
2021/01/03 05:53:40;;;;;;;9.93;5.00;;;1.70;99.90;;;;;;4204414;28;20482;-53
2021/01/03 05:55:54;;;;;;;9.00;4.70;;;1.70;99.90;;;;;;4204047;28;20535;-53
2021/01/03 05:58:18;;;;;;;10.37;5.07;;;1.70;99.90;;;;;;4204633;28;20468;-53
2021/01/03 06:00:25;;;;;;;10.33;5.63;;;1.70;99.90;;;;;;4202929;28;20886;-53
2021/01/03 06:02:28;;;;;;;10.60;5.20;;;1.60;99.90;;;;;;4203292;28;22250;-53
2021/01/03 06:04:29;;;;;;;10.27;5.10;;;1.60;99.90;;;;;;4203972;28;20501;-53
2021/01/03 06:06:55;;;;;;;9.57;5.50;;;1.60;99.90;;;;;;4203630;28;20470;-53
2021/01/03 06:08:59;;;;;;;10.23;5.13;;;1.70;99.90;;;;;;4204065;28;20473;-54
2021/01/03 06:11:13;;;;;;;7.93;4.70;;;1.70;99.90;;;;;;4203903;28;20581;-53
2021/01/03 06:13:16;;;;;;;8.27;4.37;;;1.70;99.90;;;;;;4203555;28;20485;-53
2021/01/03 06:15:18;;;;;;;9.83;5.43;;;1.70;99.90;;;;;;4203464;28;21012;-53
2021/01/03 06:17:31;;;;;;;8.10;4.90;;;1.70;99.90;;;;;;4204441;28;20469;-53
2021/01/03 06:19:37;;;;;;;10.27;4.97;;;1.70;99.90;;;;;;4203030;28;20460;-52
2021/01/03 06:21:41;;;;;;;10.63;5.10;;;1.70;99.90;;;;;;4202953;28;20458;-53
2021/01/03 06:23:51;;;;;;;10.63;5.10;;;1.70;99.90;;;;;;4204785;28;20540;-53
2021/01/03 06:25:56;;;;;;;9.37;4.87;;;1.70;99.90;;;;;;4202671;28;20484;-57
2021/01/03 06:28:07;;;;;;;9.43;5.00;;;1.70;99.90;;;;;;4202683;28;21016;-58
2021/01/03 06:30:13;;;;;;;9.00;4.47;;;1.70;99.90;;;;;;4203138;28;20919;-53
2021/01/03 06:32:54;;;;;;;9.37;4.73;;;1.70;99.90;;;;;;4202625;28;20493;-53
2021/01/03 06:35:01;;;;;;;9.93;5.27;;;1.70;99.90;;;;;;4203624;28;20906;-53
2021/01/03 06:37:09;;;;;;;10.37;6.03;;;1.70;99.90;;;;;;4203393;28;20474;-53
2021/01/03 06:39:21;;;;;;;10.40;5.23;;;1.70;99.90;;;;;;4202799;28;20463;-53
2021/01/03 06:41:25;;;;;;;8.57;4.70;;;1.70;99.90;;;;;;4202687;28;20469;-53
2021/01/03 06:43:46;;;;;;;8.97;4.90;;;1.70;99.90;;;;;;4203520;28;20884;-52
2021/01/03 06:46:42;;;;;;;15.87;5.07;;;1.70;99.90;;;;;;4203088;28;20870;-53
2021/01/03 06:49:15;;;;;;;9.63;4.77;;;1.70;99.90;;;;;;4184236;28;20467;-53
2021/01/03 06:51:38;;;;;;;9.60;4.70;;;1.70;99.90;;;;;;4198620;28;20527;-53
2021/01/03 06:54:15;;;;;;;8.00;4.60;;;1.70;99.90;;;;;;4202536;28;20477;-53
2021/01/03 06:56:43;;;;;;;9.50;5.20;;;1.70;99.90;;;;;;4202545;28;20973;-53
2021/01/03 06:59:21;;;;;;;9.13;4.90;;;1.70;99.90;;;;;;4196637;28;20990;-53
2021/01/03 07:01:27;;;;;;;10.73;5.33;;;1.70;99.90;;;;;;4202583;28;20476;-53
2021/01/03 07:03:31;;;;;;;11.33;6.23;;;1.70;99.90;;;;;;4202612;28;20475;-53
2021/01/03 07:05:33;;;;;;;11.13;5.30;;;1.80;99.90;;;;;;4203115;28;20489;-53
2021/01/03 07:07:37;;;;;;;10.70;6.00;;;1.80;99.90;;;;;;4202824;28;20475;-53
2021/01/03 07:09:54;;;;;;;9.27;5.10;;;1.80;99.90;;;;;;4203275;28;20793;-53
2021/01/03 07:11:57;;;;;;;8.57;4.70;;;1.80;99.90;;;;;;4203296;28;20467;-53
2021/01/03 07:13:58;;;;;;;9.50;5.20;;;1.80;99.90;;;;;;4202304;28;20466;-54
2021/01/03 07:16:02;;;;;;;8.67;4.97;;;1.80;99.90;;;;;;4202670;28;20473;-53
2021/01/03 07:18:19;;;;;;;9.70;5.57;;;1.80;99.90;;;;;;4203340;28;20474;-54
2021/01/03 07:20:26;;;;;;;9.53;4.80;;;1.80;99.90;;;;;;4202873;28;20486;-56
2021/01/03 07:22:35;;;;;;;11.97;5.13;;;1.80;99.90;;;;;;4202724;28;20613;-53
2021/01/03 07:24:58;;;;;;;12.53;5.63;;;1.80;99.90;;;;;;4203431;28;20493;-53
2021/01/03 07:27:28;;;;;;;12.37;6.00;;;1.80;99.90;;;;;;4203044;28;20532;-53
2021/01/03 07:29:30;;;;;;;11.40;5.97;;;1.90;99.90;;;;;;4202296;28;20481;-53
2021/01/03 07:31:50;;;;;;;11.47;5.70;;;1.90;99.90;;;;;;4201988;28;20477;-53
2021/01/03 07:34:01;;;;;;;10.47;6.00;;;1.90;99.90;;;;;;4203351;28;20498;-53
2021/01/03 07:36:17;;;;;;;11.53;6.30;;;1.80;99.90;;;;;;4202531;28;20469;-53
2021/01/03 07:38:31;;;;;;;12.23;5.60;;;1.90;99.90;;;;;;4203114;28;20466;-53
2021/01/03 07:40:49;;;;;;;11.13;5.73;;;1.90;99.90;;;;;;4202948;28;20995;-53
2021/01/03 07:43:01;;;;;;;9.83;5.27;;;1.90;99.90;;;;;;4202243;28;20459;-53
2021/01/03 07:45:18;;;;;;;10.60;5.57;;;1.90;99.90;;;;;;4204132;28;21027;-53
2021/01/03 07:47:40;;;;;;;9.93;5.40;;;2.00;99.90;;;;;;4208228;28;20468;-53
2021/01/03 07:49:44;;;;;;;13.40;6.00;;;2.00;99.90;;;;;;4206514;28;20494;-53
2021/01/03 07:51:46;;;;;;;9.80;5.40;;;2.00;99.90;;;;;;4201971;28;20564;-53
2021/01/03 07:53:50;;;;;;;12.37;5.80;;;2.00;99.90;;;;;;4201740;28;20477;-53
2021/01/03 07:55:52;;;;;;;12.43;6.17;;;2.00;99.90;;;;;;4202406;28;20497;-53
2021/01/03 07:57:56;;;;;;;13.70;5.53;;;2.00;99.90;;;;;;4201719;28;22355;-53
2021/01/03 07:59:59;;;;;;;10.67;5.10;;;2.10;99.90;;;;;;4202470;28;22353;-53
2021/01/03 08:02:01;;;;;;;10.83;5.43;;;2.10;99.90;;;;;;4201535;28;20573;-53
2021/01/03 08:04:11;;;;;;;11.70;5.67;;;2.10;99.90;;;;;;4202772;28;20478;-58
2021/01/03 08:06:12;;;;;;;10.33;5.50;;;2.10;99.90;;;;;;4202069;28;20492;-53
2021/01/03 08:08:16;;;;;;;10.03;5.50;;;2.10;99.90;;;;;;4201421;28;20469;-53
2021/01/03 08:10:19;;;;;;;10.17;5.80;;;2.10;99.90;;;;;;4200071;28;20608;-53
2021/01/03 08:12:25;;;;;;;10.77;5.30;;;2.10;99.90;;;;;;4202019;28;20986;-53
2021/01/03 08:14:33;;;;;;;10.87;5.87;;;2.10;99.90;;;;;;4202155;28;21009;-53
2021/01/03 08:16:37;;;;;;;12.03;6.23;;;2.10;99.90;;;;;;4201706;28;20482;-53
2021/01/03 08:18:41;;;;;;;11.53;6.17;;;2.20;99.90;;;;;;4202331;28;20474;-57
2021/01/03 08:20:45;;;;;;;10.43;5.40;;;2.20;99.90;;;;;;4200391;28;20532;-54
2021/01/03 08:22:46;;;;;;;11.10;5.87;;;2.30;99.90;;;;;;4201600;28;20947;-56
2021/01/03 08:24:53;;;;;;;9.47;5.40;;;2.30;99.90;;;;;;4200872;28;20493;-56
2021/01/03 08:26:58;;;;;;;10.30;5.50;;;2.30;99.90;;;;;;4200361;28;21290;-54
2021/01/03 08:29:03;;;;;;;12.80;5.90;;;2.30;99.90;;;;;;4201327;28;20546;-53
2021/01/03 08:31:06;;;;;;;13.67;6.40;;;2.30;99.90;;;;;;4201850;28;20542;-54
2021/01/03 08:33:13;;;;;;;11.40;5.43;;;2.30;99.90;;;;;;4202353;28;20475;-53
2021/01/03 08:35:23;;;;;;;10.63;5.63;;;2.40;99.90;;;;;;4201525;28;20471;-53
2021/01/03 08:37:37;;;;;;;14.73;6.23;;;2.40;99.90;;;;;;4201431;28;20495;-53
2021/01/03 08:39:38;;;;;;;12.17;5.57;;;2.50;99.90;;;;;;4201573;28;20474;-53
2021/01/03 08:41:51;;;;;;;10.80;5.43;;;2.40;99.90;;;;;;4201561;28;20465;-53
2021/01/03 08:43:53;;;;;;;11.97;5.77;;;2.50;99.90;;;;;;4200562;28;20952;-54
2021/01/03 08:46:01;;;;;;;10.67;5.40;;;2.50;99.90;;;;;;4201117;28;20488;-54
2021/01/03 08:48:06;;;;;;;14.83;5.80;;;2.50;99.90;;;;;;4201084;28;20481;-53
2021/01/03 08:50:11;;;;;;;8.60;5.17;;;2.50;99.90;;;;;;4200858;28;20472;-54
2021/01/03 08:52:19;;;;;;;9.63;5.20;;;2.60;99.90;;;;;;4201553;28;20473;-53
2021/01/03 08:54:21;;;;;;;9.37;5.30;;;2.60;99.90;;;;;;4200722;28;20588;-54
2021/01/03 08:56:27;;;;;;;11.40;5.30;;;2.60;99.90;;;;;;4200845;28;20503;-54
2021/01/03 08:58:36;;;;;;;10.60;5.53;;;2.60;99.90;;;;;;4200905;28;20471;-54
2021/01/03 09:00:40;;;;;;;10.77;5.67;;;2.60;99.90;;;;;;4201035;28;20484;-53
2021/01/03 09:02:44;;;;;;;12.57;5.67;;;2.70;99.90;;;;;;4199878;28;20481;-55
2021/01/03 09:04:46;;;;;;;10.70;5.37;;;2.70;99.90;;;;;;4200854;28;20509;-53
2021/01/03 09:06:52;;;;;;;12.13;5.40;;;2.70;99.90;;;;;;4200875;28;20469;-54
2021/01/03 09:08:54;;;;;;;8.97;5.07;;;2.80;99.90;;;;;;4201210;28;20474;-53
2021/01/03 09:11:04;;;;;;;11.90;5.60;;;2.80;99.90;;;;;;4200968;28;20595;-53
2021/01/03 09:13:12;;;;;;;11.17;5.43;;;2.80;99.90;;;;;;4200391;28;20461;-54
2021/01/03 09:15:16;;;;;;;12.93;5.80;;;2.80;99.90;;;;;;4201215;28;20461;-54
2021/01/03 09:17:19;;;;;;;11.43;5.90;;;2.90;99.90;;;;;;4201408;28;20953;-53
2021/01/03 09:19:25;;;;;;;9.70;5.10;;;2.90;99.90;;;;;;4201682;28;20518;-54
2021/01/03 09:21:27;;;;;;;10.87;5.97;;;2.90;99.90;;;;;;4200335;28;20459;-54
2021/01/03 09:23:30;;;;;;;9.43;5.23;;;2.90;99.90;;;;;;4201422;28;20998;-54
2021/01/03 09:25:34;;;;;;;9.93;5.70;;;2.90;99.90;;;;;;4200661;28;20548;-54
2021/01/03 09:27:37;;;;;;;11.03;5.43;;;2.90;99.90;;;;;;4200772;28;20470;-54
2021/01/03 09:29:40;;;;;;;10.90;5.27;;;2.90;99.90;;;;;;4200841;28;20481;-54
2021/01/03 09:31:56;;;;;;;10.87;5.60;;;2.90;99.90;;;;;;4200382;28;20469;-53
2021/01/03 09:34:13;;;;;;;12.20;5.93;;;2.90;99.90;;;;;;4200356;28;20478;-54
2021/01/03 09:36:40;;;;;;;13.47;5.70;;;2.80;99.90;;;;;;4200725;28;20493;-53
2021/01/03 09:39:16;;;;;;;11.17;5.50;;;2.80;99.90;;;;;;4200775;28;21344;-53
2021/01/03 09:41:32;;;;;;;11.27;5.60;;;2.80;99.90;;;;;;4200017;28;20474;-54
2021/01/03 09:43:49;;;;;;;9.77;5.13;;;2.80;99.90;;;;;;4200590;28;20538;-53
2021/01/03 09:46:06;;;;;;;11.43;5.53;;;2.80;99.90;;;;;;4201192;28;20487;-53
2021/01/03 09:48:08;;;;;;;14.30;6.20;;;2.80;99.90;;;;;;4201627;28;20920;-57
2021/01/03 09:50:15;;;;;;;12.50;5.43;;;2.80;99.90;;;;;;4201342;28;20473;-53
2021/01/03 09:52:26;;;;;;;12.30;5.60;;;2.80;99.90;;;;;;4200594;28;20471;-53
2021/01/03 09:54:37;;;;;;;11.83;5.20;;;2.90;99.90;;;;;;4200861;28;20476;-53
2021/01/03 09:56:41;;;;;;;9.03;5.30;;;2.90;99.90;;;;;;4200170;28;20488;-53
2021/01/03 09:58:45;;;;;;;12.63;5.50;;;2.90;99.90;;;;;;4199742;28;20530;-54
2021/01/03 10:00:51;;;;;;;10.43;5.50;;;2.90;99.90;;;;;;4199846;28;20477;-53
2021/01/03 10:03:12;;;;;;;12.40;5.20;;;2.90;99.90;;;;;;4199793;28;20479;-53
2021/01/03 10:05:22;;;;;;;10.80;5.43;;;3.00;99.90;;;;;;4200747;28;20552;-54
2021/01/03 10:07:26;;;;;;;11.93;5.60;;;3.00;99.90;;;;;;4200547;28;20503;-54
2021/01/03 10:09:33;;;;;;;8.23;4.90;;;3.10;99.90;;;;;;4200107;28;20949;-54
2021/01/03 10:11:35;;;;;;;9.27;5.27;;;3.10;99.90;;;;;;4200281;28;20792;-53
2021/01/03 10:13:36;;;;;;;10.00;4.63;;;3.10;99.90;;;;;;4200009;28;20490;-54
2021/01/03 10:15:40;;;;;;;9.40;5.00;;;3.20;99.90;;;;;;4201428;28;20559;-53
2021/01/03 10:17:44;;;;;;;10.40;5.70;;;3.20;99.90;;;;;;4201082;28;20494;-53
2021/01/03 10:19:45;;;;;;;12.93;5.50;;;3.20;99.90;;;;;;4199709;28;20804;-53
2021/01/03 10:21:47;;;;;;;8.73;4.93;;;3.20;99.90;;;;;;4199219;28;20485;-53
2021/01/03 10:23:56;;;;;;;12.13;5.53;;;3.30;99.90;;;;;;4199932;28;20470;-53
2021/01/03 10:26:14;;;;;;;10.37;4.60;;;3.40;99.90;;;;;;4200462;28;20502;-53
2021/01/03 10:28:16;;;;;;;8.70;4.83;;;3.40;99.90;;;;;;4201199;28;20468;-54
2021/01/03 10:30:18;;;;;;;9.63;4.70;;;3.40;99.90;;;;;;4201234;28;20483;-54
2021/01/03 10:32:21;;;;;;;9.27;4.97;;;3.50;99.90;;;;;;4200341;28;20467;-54
2021/01/03 10:34:23;;;;;;;7.70;4.30;;;3.60;99.90;;;;;;4204288;28;20562;-53
2021/01/03 10:36:25;;;;;;;10.17;4.67;;;3.60;99.90;;;;;;4204594;28;20473;-54
2021/01/03 10:38:26;;;;;;;10.53;5.30;;;3.60;99.90;;;;;;4204079;28;20948;-54
2021/01/03 10:40:27;;;;;;;10.13;4.97;;;3.60;99.90;;;;;;4203892;28;20471;-53
2021/01/03 10:42:29;;;;;;;10.23;5.03;;;3.70;99.90;;;;;;4202796;28;20501;-54
2021/01/03 10:44:30;;;;;;;7.90;4.60;;;3.70;99.90;;;;;;4203017;28;20474;-53
2021/01/03 10:46:31;;;;;;;6.43;4.00;;;3.80;99.90;;;;;;4202179;28;20471;-53
2021/01/03 10:48:33;;;;;;;7.80;4.37;;;3.80;99.90;;;;;;4203320;28;20490;-53
2021/01/03 10:50:35;;;;;;;8.27;4.27;;;3.70;99.90;;;;;;4203266;28;20950;-53
2021/01/03 10:52:36;;;;;;;9.03;4.53;;;3.70;99.90;;;;;;4202369;28;20521;-53
2021/01/03 10:54:37;;;;;;;8.07;4.20;;;3.70;99.90;;;;;;4202482;28;20519;-53
2021/01/03 10:56:39;;;;;;;7.03;3.73;;;3.60;99.90;;;;;;4203655;28;20495;-53
2021/01/03 10:58:40;;;;;;;8.77;4.50;;;3.60;99.90;;;;;;4202457;28;20476;-53
2021/01/03 11:00:42;;;;;;;5.90;3.53;;;3.60;99.90;;;;;;4202884;28;20471;-53
2021/01/03 11:02:43;;;;;;;5.97;3.57;;;3.60;99.90;;;;;;4203433;28;20495;-53